Time;durP1;ratioP1;P1;durP2;ratioP2;P2;SDS_P1;SDS_P2;PMS_P1;PMS_P2;Temp;Humidity;BMP_temperature;BMP_pressure;BME280_temperature;BME280_humidity;BME280_pressure;Samples;Min_cycle;Max_cycle;Signal;HPM_P1;HPM_P2
2022/07/21 00:01:12;;;;;;;16.55;11.45;;;23.50;99.90;;;;;;5035172;28;20053;-82
2022/07/21 00:03:38;;;;;;;14.23;11.48;;;23.50;99.90;;;;;;5025113;28;20046;-82
2022/07/21 00:06:06;;;;;;;16.25;10.55;;;23.50;99.90;;;;;;5042584;28;20037;-80
2022/07/21 00:08:33;;;;;;;14.43;10.35;;;23.40;99.90;;;;;;5039718;28;20046;-80
2022/07/21 00:11:00;;;;;;;13.07;11.57;;;23.40;99.90;;;;;;5043594;28;20446;-80
2022/07/21 00:13:27;;;;;;;12.48;10.50;;;23.50;99.90;;;;;;5043844;28;20053;-80
2022/07/21 00:15:53;;;;;;;16.00;11.38;;;23.40;99.90;;;;;;5058373;28;20076;-81
2022/07/21 00:18:21;;;;;;;12.93;11.13;;;23.40;99.90;;;;;;5039199;28;20053;-79
2022/07/21 00:20:47;;;;;;;15.52;12.52;;;23.40;99.90;;;;;;5041996;28;20049;-82
2022/07/21 00:23:14;;;;;;;12.68;11.25;;;23.40;99.90;;;;;;5042184;28;20050;-81
2022/07/21 00:25:41;;;;;;;13.88;11.48;;;23.40;99.90;;;;;;5045815;28;20042;-81
2022/07/21 00:28:07;;;;;;;15.25;11.43;;;23.30;99.90;;;;;;5032023;28;20046;-80
2022/07/21 00:30:34;;;;;;;16.42;12.20;;;23.30;99.90;;;;;;5030646;28;20656;-81
2022/07/21 00:33:01;;;;;;;14.35;11.82;;;23.20;99.90;;;;;;5033768;28;20061;-82
2022/07/21 00:35:28;;;;;;;17.17;12.38;;;23.10;99.90;;;;;;5026744;28;20054;-81
2022/07/21 00:37:55;;;;;;;12.73;11.43;;;23.20;99.90;;;;;;5033122;28;20165;-82
2022/07/21 00:40:22;;;;;;;14.55;12.43;;;23.10;99.90;;;;;;5028064;28;20511;-82
2022/07/21 00:42:48;;;;;;;16.98;12.52;;;23.00;99.90;;;;;;5048438;28;20050;-81
2022/07/21 00:45:15;;;;;;;13.30;11.93;;;23.00;99.90;;;;;;5034263;28;20073;-82
2022/07/21 00:47:42;;;;;;;15.95;13.40;;;23.00;99.90;;;;;;5032044;28;20105;-82
2022/07/21 00:50:14;;;;;;;14.68;12.30;;;23.00;99.90;;;;;;5029503;28;20530;-82
2022/07/21 00:52:41;;;;;;;14.48;12.77;;;23.00;99.90;;;;;;5034715;28;20065;-82
2022/07/21 00:55:11;;;;;;;16.17;13.00;;;23.00;99.90;;;;;;5031854;28;20081;-82
2022/07/21 00:57:38;;;;;;;14.00;12.00;;;23.00;99.90;;;;;;5034693;28;20057;-82
2022/07/21 01:00:12;;;;;;;15.95;12.38;;;23.00;99.90;;;;;;5035572;28;20045;-82
2022/07/21 01:02:39;;;;;;;17.55;11.95;;;22.90;99.90;;;;;;5037692;28;20042;-80
2022/07/21 01:05:14;;;;;;;14.07;12.10;;;22.90;99.90;;;;;;5036862;28;20080;-81
2022/07/21 01:07:46;;;;;;;15.77;11.98;;;22.90;99.90;;;;;;5032706;28;20499;-82
2022/07/21 01:10:14;;;;;;;13.48;11.90;;;22.90;99.90;;;;;;5032430;28;20050;-81
2022/07/21 01:12:42;;;;;;;14.98;11.90;;;22.90;99.90;;;;;;5034854;28;20081;-82
2022/07/21 01:15:10;;;;;;;16.45;11.85;;;22.90;99.90;;;;;;5031902;28;20058;-81
2022/07/21 01:17:37;;;;;;;12.63;10.95;;;22.90;99.90;;;;;;5032548;28;20084;-81
2022/07/21 01:20:11;;;;;;;13.77;11.32;;;22.90;99.90;;;;;;5031168;28;20088;-81
2022/07/21 01:22:41;;;;;;;15.90;12.40;;;22.90;99.90;;;;;;5029144;28;20077;-81
2022/07/21 01:25:08;;;;;;;14.07;11.05;;;22.90;99.90;;;;;;5037456;28;20046;-81
2022/07/21 01:27:35;;;;;;;20.92;11.70;;;22.90;99.90;;;;;;5032575;28;20452;-80
2022/07/21 01:30:04;;;;;;;15.27;11.07;;;22.80;99.90;;;;;;5031648;28;20056;-81
2022/07/21 01:32:36;;;;;;;16.50;11.57;;;22.80;99.90;;;;;;5029619;28;20105;-82
2022/07/21 01:35:05;;;;;;;13.90;11.68;;;22.70;99.90;;;;;;5033776;28;20045;-81
2022/07/21 01:37:36;;;;;;;15.50;11.40;;;22.80;99.90;;;;;;5028702;28;20060;-81
2022/07/21 01:42:49;;;;;;;17.70;12.75;;;22.70;99.90;;;;;;5031911;28;20529;-82
2022/07/21 01:45:16;;;;;;;13.73;12.32;;;22.70;99.90;;;;;;5030180;28;20414;-81
2022/07/21 01:47:42;;;;;;;14.38;12.88;;;22.60;99.90;;;;;;5029664;28;20463;-81
2022/07/21 01:50:10;;;;;;;13.48;11.60;;;22.60;99.90;;;;;;5033637;28;20073;-82
2022/07/21 01:52:37;;;;;;;12.57;11.25;;;22.60;99.90;;;;;;5027256;28;20060;-81
2022/07/21 01:55:04;;;;;;;16.45;12.05;;;22.50;99.90;;;;;;5041586;28;20050;-81
2022/07/21 01:57:31;;;;;;;12.98;11.57;;;22.60;99.90;;;;;;5041022;28;20049;-81
2022/07/21 01:59:58;;;;;;;15.68;12.40;;;22.50;99.90;;;;;;5035884;28;20073;-82
2022/07/21 02:02:25;;;;;;;15.40;12.60;;;22.40;99.90;;;;;;5025128;28;20046;-81
2022/07/21 02:04:51;;;;;;;14.77;12.15;;;22.40;99.90;;;;;;5025121;28;20137;-82
2022/07/21 02:07:18;;;;;;;15.63;12.65;;;22.40;99.90;;;;;;5035862;28;20073;-79
2022/07/21 02:09:45;;;;;;;13.90;12.07;;;22.40;99.90;;;;;;5032983;28;20056;-82
2022/07/21 02:12:11;;;;;;;16.83;12.90;;;22.40;99.90;;;;;;5041985;28;20132;-82
2022/07/21 02:14:38;;;;;;;16.10;12.68;;;22.40;99.90;;;;;;5036561;28;20132;-82
2022/07/21 02:17:05;;;;;;;15.38;11.40;;;22.40;99.90;;;;;;5034906;28;20092;-80
2022/07/21 02:19:32;;;;;;;16.50;12.77;;;22.40;99.90;;;;;;5032626;28;20045;-81
2022/07/21 02:21:58;;;;;;;15.57;12.40;;;22.50;99.90;;;;;;5029503;28;20473;-81
2022/07/21 02:24:25;;;;;;;15.05;13.05;;;22.50;99.90;;;;;;5036780;28;20073;-81
2022/07/21 02:26:52;;;;;;;15.50;12.32;;;22.50;99.90;;;;;;5037059;28;20041;-81
2022/07/21 02:29:19;;;;;;;17.13;12.95;;;22.60;99.90;;;;;;5032771;28;20493;-81
2022/07/21 02:31:45;;;;;;;15.35;12.88;;;22.60;99.90;;;;;;5032040;28;20052;-82
2022/07/21 02:34:12;;;;;;;14.43;12.60;;;22.60;99.90;;;;;;5030677;28;20050;-81
2022/07/21 02:36:39;;;;;;;16.40;12.60;;;22.70;99.90;;;;;;5027834;28;20551;-82
2022/07/21 02:39:06;;;;;;;16.17;12.88;;;22.70;99.90;;;;;;5028978;28;20049;-81
2022/07/21 02:41:33;;;;;;;17.02;13.13;;;22.60;99.90;;;;;;5026492;28;20080;-81
2022/07/21 02:43:59;;;;;;;14.85;13.32;;;22.60;99.90;;;;;;5033262;28;20113;-79
2022/07/21 02:46:26;;;;;;;16.25;13.00;;;22.60;99.90;;;;;;5039263;28;20034;-81
2022/07/21 02:48:53;;;;;;;14.50;12.85;;;22.60;99.90;;;;;;5030027;28;20515;-82
2022/07/21 02:51:20;;;;;;;16.08;13.10;;;22.60;99.90;;;;;;5030831;28;20072;-82
2022/07/21 02:53:47;;;;;;;16.55;12.63;;;22.50;99.90;;;;;;5029213;28;20046;-83
2022/07/21 02:56:15;;;;;;;15.60;13.60;;;22.50;99.90;;;;;;5028481;28;20069;-81
2022/07/21 02:58:42;;;;;;;15.48;13.82;;;22.50;99.90;;;;;;5035977;28;20507;-82
2022/07/21 03:01:09;;;;;;;15.02;13.35;;;22.50;99.90;;;;;;5027167;28;20113;-82
2022/07/21 03:03:36;;;;;;;17.70;13.82;;;22.50;99.90;;;;;;5050668;28;20120;-82
2022/07/21 03:06:04;;;;;;;19.60;12.73;;;22.50;99.90;;;;;;5031762;28;20060;-80
2022/07/21 03:08:31;;;;;;;17.02;14.20;;;22.50;99.90;;;;;;5029699;28;20042;-81
2022/07/21 03:10:58;;;;;;;16.98;14.48;;;22.50;99.90;;;;;;5026973;28;20108;-81
2022/07/21 03:13:25;;;;;;;16.67;13.43;;;22.50;99.90;;;;;;5029762;28;20121;-82
2022/07/21 03:15:53;;;;;;;17.30;14.82;;;22.50;99.90;;;;;;5029251;28;20132;-80
2022/07/21 03:18:20;;;;;;;21.10;14.65;;;22.50;99.90;;;;;;5028737;28;20480;-81
2022/07/21 03:20:47;;;;;;;19.60;14.50;;;22.50;99.90;;;;;;5025588;28;20451;-81
2022/07/21 03:23:14;;;;;;;16.80;13.27;;;22.40;99.90;;;;;;5030027;28;20073;-81
2022/07/21 03:25:40;;;;;;;18.02;14.57;;;22.40;99.90;;;;;;5028067;28;20045;-81
2022/07/21 03:28:08;;;;;;;16.23;13.35;;;22.40;99.90;;;;;;5029197;28;20132;-79
2022/07/21 03:30:36;;;;;;;16.55;13.98;;;22.40;99.90;;;;;;5025359;28;20084;-81
2022/07/21 03:33:04;;;;;;;21.38;13.85;;;22.30;99.90;;;;;;5028524;28;20104;-82
2022/07/21 03:35:31;;;;;;;20.73;15.10;;;22.20;99.90;;;;;;5041828;28;20046;-82
2022/07/21 03:38:00;;;;;;;15.57;13.38;;;22.20;99.90;;;;;;5026881;28;20064;-83
2022/07/21 03:40:30;;;;;;;19.63;14.75;;;22.20;99.90;;;;;;5026128;28;20046;-82
2022/07/21 03:42:59;;;;;;;20.58;15.20;;;22.20;99.90;;;;;;5025830;28;20141;-82
2022/07/21 03:45:29;;;;;;;17.30;15.20;;;22.20;99.90;;;;;;5034857;28;20045;-80
2022/07/21 03:47:58;;;;;;;19.73;14.18;;;22.20;99.90;;;;;;5047478;28;20045;-79
2022/07/21 03:50:25;;;;;;;19.30;14.30;;;22.10;99.90;;;;;;5035396;28;20068;-82
2022/07/21 03:52:52;;;;;;;18.45;14.88;;;22.10;99.90;;;;;;5028757;28;20089;-82
2022/07/21 03:55:19;;;;;;;20.92;15.63;;;22.10;99.90;;;;;;5035191;28;20108;-82
2022/07/21 03:57:54;;;;;;;19.15;14.40;;;22.10;99.90;;;;;;5034491;28;20590;-82
2022/07/21 04:00:26;;;;;;;19.08;14.90;;;22.00;99.90;;;;;;5027528;28;20046;-82
2022/07/21 04:02:53;;;;;;;19.38;14.10;;;22.10;99.90;;;;;;5030596;28;20495;-81
2022/07/21 04:05:20;;;;;;;17.45;14.20;;;22.00;99.90;;;;;;5027609;28;20049;-82
2022/07/21 04:07:49;;;;;;;20.02;14.25;;;22.00;99.90;;;;;;5027170;28;20107;-82
2022/07/21 04:10:19;;;;;;;16.73;14.60;;;22.10;99.90;;;;;;5027878;28;20054;-82
2022/07/21 04:12:47;;;;;;;18.10;15.07;;;22.00;99.90;;;;;;5022716;28;20045;-82
2022/07/21 04:15:14;;;;;;;20.38;15.00;;;22.00;99.90;;;;;;5032900;28;20045;-83
2022/07/21 04:17:41;;;;;;;19.15;14.23;;;22.00;99.90;;;;;;5038960;28;20049;-82
2022/07/21 04:20:09;;;;;;;17.70;12.82;;;21.90;99.90;;;;;;5034234;28;20081;-82
2022/07/21 04:22:37;;;;;;;17.48;13.55;;;21.80;99.90;;;;;;5040827;28;20052;-82
2022/07/21 04:25:05;;;;;;;20.98;14.63;;;21.80;99.90;;;;;;5034937;28;20184;-82
2022/07/21 04:27:32;;;;;;;20.77;14.52;;;21.70;99.90;;;;;;5035121;28;20077;-82
2022/07/21 04:29:59;;;;;;;19.98;14.77;;;21.80;99.90;;;;;;5035532;28;20049;-82
2022/07/21 04:32:26;;;;;;;18.17;14.30;;;21.80;99.90;;;;;;5042347;28;20076;-82
2022/07/21 04:34:53;;;;;;;18.35;14.43;;;21.70;99.90;;;;;;5034854;28;20056;-81
2022/07/21 04:37:20;;;;;;;16.88;14.32;;;21.70;99.90;;;;;;5034999;28;20080;-81
2022/07/21 04:39:47;;;;;;;16.48;14.80;;;21.70;99.90;;;;;;5029039;28;20076;-82
2022/07/21 04:42:19;;;;;;;16.55;14.25;;;21.80;99.90;;;;;;5034632;28;20529;-81
2022/07/21 04:44:46;;;;;;;20.98;13.68;;;21.80;99.90;;;;;;5029507;28;20046;-81
2022/07/21 04:47:13;;;;;;;20.00;13.98;;;21.80;99.90;;;;;;5030141;28;20042;-81
2022/07/21 04:49:40;;;;;;;18.80;14.13;;;21.80;99.90;;;;;;5033639;28;20049;-82
2022/07/21 04:52:07;;;;;;;19.73;13.32;;;21.80;99.90;;;;;;5030824;28;20444;-81
2022/07/21 04:54:33;;;;;;;16.65;13.05;;;21.70;99.90;;;;;;5033156;28;20080;-82
2022/07/21 04:57:02;;;;;;;17.85;12.15;;;21.80;99.90;;;;;;5034519;28;20077;-81
2022/07/21 04:59:29;;;;;;;20.02;14.13;;;21.80;99.90;;;;;;5030842;28;20060;-82
2022/07/21 05:01:57;;;;;;;17.38;12.75;;;21.90;99.90;;;;;;5028721;28;20042;-82
2022/07/21 05:04:24;;;;;;;14.45;11.73;;;22.00;99.90;;;;;;5035640;28;20439;-81
2022/07/21 05:06:52;;;;;;;14.20;11.55;;;22.10;99.90;;;;;;5029070;28;20049;-81
2022/07/21 05:09:19;;;;;;;17.65;12.45;;;22.20;99.90;;;;;;5027139;28;20046;-81
2022/07/21 05:11:46;;;;;;;14.90;12.60;;;22.20;99.90;;;;;;5025089;28;20054;-82
2022/07/21 05:14:13;;;;;;;15.35;12.65;;;22.30;99.90;;;;;;5030352;28;20050;-81
2022/07/21 05:16:42;;;;;;;16.95;12.65;;;22.30;99.90;;;;;;5037823;28;20076;-79
2022/07/21 05:19:08;;;;;;;14.95;11.85;;;22.40;99.90;;;;;;5033858;28;20088;-80
2022/07/21 05:21:35;;;;;;;19.13;11.95;;;22.30;99.90;;;;;;5033008;28;20068;-80
2022/07/21 05:24:02;;;;;;;14.23;12.73;;;22.40;99.90;;;;;;5042320;28;20046;-80
2022/07/21 05:26:29;;;;;;;15.52;12.23;;;22.50;99.90;;;;;;5035863;28;20073;-80
2022/07/21 05:28:56;;;;;;;14.27;12.35;;;22.50;99.90;;;;;;5033736;28;20046;-80
2022/07/21 05:31:23;;;;;;;14.88;12.15;;;22.60;99.90;;;;;;5045340;28;20105;-79
2022/07/21 05:33:50;;;;;;;17.80;12.70;;;22.70;99.90;;;;;;5053625;28;20109;-80
2022/07/21 05:36:18;;;;;;;13.02;11.25;;;22.80;99.90;;;;;;5045954;28;20037;-80
2022/07/21 05:38:45;;;;;;;15.32;12.77;;;22.90;99.90;;;;;;5055214;28;20084;-79
2022/07/21 05:41:12;;;;;;;15.75;12.02;;;22.90;99.90;;;;;;5053372;28;20080;-79
2022/07/21 05:43:38;;;;;;;14.25;12.10;;;23.00;99.90;;;;;;5049065;28;20034;-79
2022/07/21 05:46:05;;;;;;;16.58;13.20;;;23.00;99.90;;;;;;5052244;28;20030;-81
2022/07/21 05:48:32;;;;;;;14.23;12.75;;;23.00;99.90;;;;;;5048079;28;20045;-79
2022/07/21 05:50:59;;;;;;;15.80;12.25;;;23.00;99.90;;;;;;5052973;28;20128;-80
2022/07/21 05:53:25;;;;;;;14.13;11.68;;;23.00;99.90;;;;;;5040073;28;20100;-80
2022/07/21 05:55:52;;;;;;;17.40;11.82;;;23.10;99.90;;;;;;5043402;28;20073;-80
2022/07/21 05:58:22;;;;;;;14.63;12.18;;;23.10;99.90;;;;;;5040735;28;20045;-80
2022/07/21 06:01:08;;;;;;;22.13;12.52;;;23.10;99.90;;;;;;5034484;28;20136;-79
2022/07/21 06:03:36;;;;;;;14.55;11.70;;;23.10;99.90;;;;;;5033945;28;20068;-80
2022/07/21 06:06:04;;;;;;;16.40;11.20;;;23.20;99.90;;;;;;5029813;28;20076;-81
2022/07/21 06:08:31;;;;;;;17.35;11.75;;;23.20;99.90;;;;;;5040361;28;20041;-81
2022/07/21 06:10:57;;;;;;;15.95;12.18;;;23.10;99.90;;;;;;5038915;28;20060;-80
2022/07/21 06:13:24;;;;;;;12.68;11.25;;;23.20;99.90;;;;;;5043368;28;20069;-81
2022/07/21 06:15:51;;;;;;;13.23;11.43;;;23.20;99.90;;;;;;5034492;28;20058;-81
2022/07/21 06:18:18;;;;;;;14.13;11.45;;;23.20;99.90;;;;;;5041114;28;20057;-81
2022/07/21 06:20:45;;;;;;;15.25;11.32;;;23.20;99.90;;;;;;5033015;28;20109;-81
2022/07/21 06:23:11;;;;;;;16.08;11.00;;;23.20;99.90;;;;;;5035973;28;20192;-81
2022/07/21 06:25:38;;;;;;;14.18;10.90;;;23.20;99.90;;;;;;5048963;28;20487;-81
2022/07/21 06:28:05;;;;;;;14.13;10.70;;;23.20;99.90;;;;;;5034733;28;20045;-81
2022/07/21 06:30:32;;;;;;;11.95;10.23;;;23.10;99.90;;;;;;5034137;28;20132;-82
2022/07/21 06:32:58;;;;;;;12.20;10.65;;;23.20;99.90;;;;;;5037090;28;20053;-82
2022/07/21 06:35:25;;;;;;;13.82;10.35;;;23.20;99.90;;;;;;5043696;28;20132;-81
2022/07/21 06:37:52;;;;;;;12.98;10.15;;;23.20;99.90;;;;;;5032631;28;20049;-81
2022/07/21 06:40:19;;;;;;;14.55;10.45;;;23.30;99.90;;;;;;5042155;28;20107;-81
2022/07/21 06:42:46;;;;;;;13.90;10.35;;;23.30;99.90;;;;;;5033224;28;20517;-82
2022/07/21 06:45:33;;;;;;;13.10;9.93;;;23.30;99.90;;;;;;5033962;28;20042;-82
2022/07/21 06:48:05;;;;;;;14.73;9.63;;;23.30;99.90;;;;;;5034805;28;20054;-81
2022/07/21 06:50:32;;;;;;;16.88;10.10;;;23.30;99.90;;;;;;5036033;28;20046;-82
2022/07/21 06:52:59;;;;;;;13.15;10.07;;;23.30;99.90;;;;;;5040256;28;20045;-81
2022/07/21 06:55:27;;;;;;;13.13;9.63;;;23.30;99.90;;;;;;5031821;28;20081;-82
2022/07/21 06:57:54;;;;;;;11.40;8.65;;;23.30;99.90;;;;;;5037498;28;20045;-80
2022/07/21 07:00:21;;;;;;;11.30;8.60;;;23.30;99.90;;;;;;5034571;28;20045;-80
2022/07/21 07:02:48;;;;;;;12.02;8.45;;;23.40;99.90;;;;;;5028857;28;20078;-80
2022/07/21 07:05:15;;;;;;;15.43;8.98;;;23.50;99.90;;;;;;5026357;28;20046;-79
2022/07/21 07:07:43;;;;;;;12.25;8.20;;;23.50;99.90;;;;;;5025949;28;20116;-80
2022/07/21 07:10:10;;;;;;;8.77;7.78;;;23.50;99.90;;;;;;5028486;28;20050;-81
2022/07/21 07:12:37;;;;;;;10.63;8.18;;;23.60;99.90;;;;;;5029802;28;20049;-80
2022/07/21 07:15:25;;;;;;;11.43;7.53;;;23.60;99.90;;;;;;5028836;28;20533;-80
2022/07/21 07:17:52;;;;;;;10.75;7.20;;;23.60;99.90;;;;;;5028037;28;20127;-79
2022/07/21 07:20:20;;;;;;;8.18;6.80;;;23.70;99.90;;;;;;5025557;28;20618;-80
2022/07/21 07:22:47;;;;;;;8.63;6.90;;;23.60;99.90;;;;;;5028987;28;20168;-80
2022/07/21 07:25:16;;;;;;;6.68;5.97;;;23.60;99.90;;;;;;5031167;28;20045;-79
2022/07/21 07:27:48;;;;;;;10.02;6.75;;;23.70;99.90;;;;;;5026973;28;20050;-79
2022/07/21 07:30:16;;;;;;;7.65;6.32;;;23.70;99.90;;;;;;5027342;28;20073;-80
2022/07/21 07:32:43;;;;;;;9.40;6.85;;;23.80;99.90;;;;;;5027584;28;20455;-79
2022/07/21 07:35:11;;;;;;;8.10;6.45;;;23.80;99.90;;;;;;5033237;28;20073;-80
2022/07/21 07:37:39;;;;;;;7.47;6.78;;;23.80;99.90;;;;;;5031996;28;20077;-80
2022/07/21 07:40:09;;;;;;;9.98;6.60;;;23.80;99.90;;;;;;5032701;28;20053;-81
2022/07/21 07:42:37;;;;;;;7.78;6.40;;;23.90;99.90;;;;;;5033887;28;20099;-81
2022/07/21 07:45:05;;;;;;;9.88;6.18;;;23.90;99.90;;;;;;5035766;28;20046;-80
2022/07/21 07:47:33;;;;;;;13.02;6.90;;;23.90;99.90;;;;;;5047937;28;20042;-80
2022/07/21 07:50:00;;;;;;;7.13;5.28;;;23.90;99.90;;;;;;5029744;28;20420;-79
2022/07/21 07:52:28;;;;;;;8.25;5.72;;;24.00;99.90;;;;;;5032736;28;20050;-81
2022/07/21 07:54:54;;;;;;;8.15;5.13;;;24.00;99.90;;;;;;5035510;28;20088;-80
2022/07/21 07:57:21;;;;;;;6.95;5.13;;;24.00;99.90;;;;;;5035788;28;20494;-80
2022/07/21 07:59:48;;;;;;;5.88;5.35;;;24.00;99.90;;;;;;5033382;28;20052;-81
2022/07/21 08:02:15;;;;;;;8.45;5.15;;;24.00;99.90;;;;;;5036488;28;20097;-81
2022/07/21 08:04:42;;;;;;;8.20;5.38;;;24.10;99.90;;;;;;5036086;28;20146;-81
2022/07/21 08:07:08;;;;;;;4.80;4.40;;;24.10;99.90;;;;;;5032371;28;20046;-80
2022/07/21 08:09:35;;;;;;;6.22;5.18;;;24.10;99.90;;;;;;5049599;28;20077;-81
2022/07/21 08:12:02;;;;;;;7.45;4.93;;;24.10;99.90;;;;;;5035725;28;20065;-81
2022/07/21 08:14:29;;;;;;;5.90;4.57;;;24.20;99.90;;;;;;5035015;28;20049;-80
2022/07/21 08:16:58;;;;;;;6.78;4.80;;;24.20;99.90;;;;;;5040721;28;20081;-80
2022/07/21 08:19:26;;;;;;;7.07;4.75;;;24.20;99.90;;;;;;5038574;28;20053;-81
2022/07/21 08:21:53;;;;;;;6.85;4.90;;;24.30;99.90;;;;;;5043137;28;20045;-79
2022/07/21 08:24:38;;;;;;;8.95;5.60;;;24.30;99.90;;;;;;5037567;28;20597;-82
2022/07/21 08:27:04;;;;;;;5.30;4.57;;;24.30;99.90;;;;;;5035723;28;20073;-81
2022/07/21 08:29:31;;;;;;;5.68;4.57;;;24.30;99.90;;;;;;5029779;28;20118;-81
2022/07/21 08:31:58;;;;;;;8.80;4.90;;;24.40;99.90;;;;;;5035102;28;20073;-81
2022/07/21 08:34:25;;;;;;;8.30;5.63;;;24.40;99.90;;;;;;5040514;28;20045;-79
2022/07/21 08:36:52;;;;;;;8.50;4.88;;;24.40;99.90;;;;;;5046637;28;20057;-79
2022/07/21 08:39:19;;;;;;;8.48;4.65;;;24.50;99.90;;;;;;5027043;28;20073;-81
2022/07/21 08:41:47;;;;;;;5.20;4.22;;;24.50;99.90;;;;;;5028554;28;20525;-79
2022/07/21 08:44:17;;;;;;;8.73;4.45;;;24.50;99.90;;;;;;5028544;28;20405;-80
2022/07/21 08:46:49;;;;;;;6.82;4.47;;;24.60;99.90;;;;;;5029876;28;20046;-79
2022/07/21 08:49:21;;;;;;;5.70;3.78;;;24.60;99.90;;;;;;5033318;28;20045;-80
2022/07/21 08:51:51;;;;;;;5.47;4.15;;;24.70;99.90;;;;;;5025783;28;20522;-79
2022/07/21 08:54:21;;;;;;;7.32;3.92;;;24.80;99.90;;;;;;5027528;28;20527;-80
2022/07/21 08:56:49;;;;;;;4.10;3.30;;;24.80;99.90;;;;;;5031079;28;20045;-80
2022/07/21 08:59:16;;;;;;;3.83;3.45;;;24.90;99.90;;;;;;5038479;28;20054;-80
2022/07/21 09:01:44;;;;;;;4.43;3.58;;;24.90;99.90;;;;;;5028570;28;20076;-79
2022/07/21 09:04:21;;;;;;;4.10;2.97;;;24.90;99.90;;;;;;5035474;28;20500;-80
2022/07/21 09:07:00;;;;;;;4.93;3.63;;;24.90;99.90;;;;;;5035035;28;20409;-79
2022/07/21 09:09:28;;;;;;;5.55;3.10;;;25.00;99.90;;;;;;5034132;28;20041;-80
2022/07/21 09:11:56;;;;;;;3.83;2.53;;;25.00;99.90;;;;;;5031059;28;20423;-80
2022/07/21 09:14:25;;;;;;;5.47;3.47;;;25.00;99.90;;;;;;5029282;28;20053;-80
2022/07/21 09:16:55;;;;;;;4.68;2.90;;;25.00;99.90;;;;;;5025778;28;20049;-79
2022/07/21 09:19:38;;;;;;;5.22;2.97;;;25.10;99.90;;;;;;5027784;28;20402;-79
2022/07/21 09:22:06;;;;;;;5.45;3.00;;;25.10;99.90;;;;;;5043659;28;20116;-79
2022/07/21 09:24:39;;;;;;;3.00;2.70;;;25.20;99.90;;;;;;5027323;28;20052;-81
2022/07/21 09:27:07;;;;;;;5.70;2.88;;;25.30;99.90;;;;;;5039796;28;20084;-80
2022/07/21 09:29:47;;;;;;;6.75;3.00;;;25.30;99.90;;;;;;5049845;28;20057;-79
2022/07/21 09:32:20;;;;;;;6.32;3.15;;;25.40;99.90;;;;;;5032591;28;20057;-79
2022/07/21 09:34:48;;;;;;;4.55;2.97;;;25.50;99.90;;;;;;5032070;28;20061;-80
2022/07/21 09:37:17;;;;;;;6.22;3.03;;;25.50;99.90;;;;;;5039013;28;20054;-82
2022/07/21 09:39:47;;;;;;;3.15;2.72;;;25.50;99.90;;;;;;5030299;28;20121;-80
2022/07/21 09:42:15;;;;;;;4.22;3.20;;;25.60;99.90;;;;;;5039800;28;20061;-80
2022/07/21 09:44:44;;;;;;;7.30;3.85;;;25.70;99.90;;;;;;5023498;28;20418;-80
2022/07/21 09:47:21;;;;;;;5.80;3.43;;;25.80;99.90;;;;;;5024502;28;20133;-80
2022/07/21 09:49:49;;;;;;;7.18;2.33;;;25.90;99.90;;;;;;5023551;28;20547;-79
2022/07/21 09:52:39;;;;;;;4.57;2.92;;;26.00;99.90;;;;;;5030569;28;20507;-79
2022/07/21 09:55:08;;;;;;;;;;;26.10;99.90;;;;;;5028341;28;20050;-79
2022/07/21 09:57:35;;;;;;;6.13;3.28;;;26.20;99.90;;;;;;5031176;28;19957;-80
2022/07/21 10:00:12;;;;;;;6.90;3.00;;;26.20;99.90;;;;;;5024835;28;20053;-80
2022/07/21 10:02:46;;;;;;;5.38;2.83;;;26.30;99.90;;;;;;5033737;28;20083;-78
2022/07/21 10:05:19;;;;;;;4.15;3.17;;;26.30;99.90;;;;;;5044662;28;20042;-80
2022/07/21 10:07:48;;;;;;;4.43;3.13;;;26.30;99.90;;;;;;5024371;28;20061;-79
2022/07/21 10:10:17;;;;;;;3.25;2.40;;;26.40;99.90;;;;;;5042941;28;20045;-80
2022/07/21 10:12:47;;;;;;;3.88;2.55;;;26.50;99.90;;;;;;5025321;28;20069;-79
2022/07/21 10:15:15;;;;;;;3.47;2.53;;;26.50;99.90;;;;;;5035006;28;20112;-79
2022/07/21 10:17:46;;;;;;;5.85;3.20;;;26.60;99.90;;;;;;5026471;28;20091;-81
2022/07/21 10:20:27;;;;;;;4.53;3.50;;;26.60;99.90;;;;;;5029522;28;20099;-81
2022/07/21 10:23:21;;;;;;;4.60;2.90;;;26.60;99.90;;;;;;5036120;28;20443;-81
2022/07/21 10:25:49;;;;;;;5.60;3.45;;;26.70;99.90;;;;;;5036280;28;20076;-81
2022/07/21 10:28:24;;;;;;;4.38;3.25;;;26.60;99.90;;;;;;5032061;28;20614;-81
2022/07/21 10:30:54;;;;;;;4.90;3.47;;;26.60;99.90;;;;;;5036184;28;20053;-82
2022/07/21 10:33:44;;;;;;;4.55;3.05;;;26.60;99.90;;;;;;5043507;28;20096;-81
2022/07/21 10:36:33;;;;;;;7.00;3.00;;;26.60;99.90;;;;;;5031369;28;20085;-82
2022/07/21 10:39:06;;;;;;;3.78;3.08;;;26.60;99.90;;;;;;5034966;28;20088;-82
2022/07/21 10:41:38;;;;;;;3.92;3.05;;;26.60;99.90;;;;;;5039856;28;20049;-82
2022/07/21 10:44:27;;;;;;;4.38;3.05;;;26.60;99.90;;;;;;5039544;28;20049;-82
2022/07/21 10:47:20;;;;;;;6.28;2.90;;;26.60;99.90;;;;;;5037124;28;20092;-82
2022/07/21 10:50:04;;;;;;;8.35;3.10;;;26.70;99.90;;;;;;5032216;28;20124;-80
2022/07/21 10:52:39;;;;;;;4.68;3.10;;;26.70;99.90;;;;;;5033362;28;20072;-81
2022/07/21 10:55:26;;;;;;;3.50;2.33;;;26.70;99.90;;;;;;5032532;28;20111;-82
2022/07/21 10:58:13;;;;;;;3.55;2.83;;;26.70;99.90;;;;;;5032869;28;20054;-81
2022/07/21 11:00:58;;;;;;;4.03;2.70;;;26.70;99.90;;;;;;5047638;28;20049;-82
2022/07/21 11:03:40;;;;;;;4.55;3.40;;;26.70;99.90;;;;;;5031325;28;20069;-83
2022/07/21 11:06:22;;;;;;;5.50;2.90;;;26.60;99.90;;;;;;5035591;28;20041;-82
2022/07/21 11:09:16;;;;;;;3.95;2.60;;;26.60;99.90;;;;;;5049729;28;20049;-81
2022/07/21 11:11:46;;;;;;;5.55;2.97;;;26.60;99.90;;;;;;5029753;28;20472;-81
2022/07/21 11:14:18;;;;;;;7.65;3.42;;;26.70;99.90;;;;;;5071881;22;20064;-84
2022/07/21 11:16:54;;;;;;;6.45;3.00;;;26.70;99.90;;;;;;5054079;28;20519;-83
2022/07/21 11:19:39;;;;;;;5.15;3.20;;;26.70;99.90;;;;;;5059652;28;20068;-80
2022/07/21 11:22:22;;;;;;;4.85;2.78;;;26.80;99.90;;;;;;5061171;28;20053;-82
2022/07/21 11:25:05;;;;;;;8.77;3.40;;;26.90;99.90;;;;;;5026447;28;20050;-82
2022/07/21 11:27:35;;;;;;;6.38;3.08;;;26.90;99.90;;;;;;5010645;28;20050;-82
2022/07/21 11:30:05;;;;;;;5.30;2.57;;;27.00;99.90;;;;;;5011309;28;20063;-82
2022/07/21 11:32:32;;;;;;;6.93;3.22;;;27.00;99.90;;;;;;5010764;28;20046;-82
2022/07/21 11:35:01;;;;;;;3.70;2.55;;;27.00;99.90;;;;;;5006866;28;20065;-82
2022/07/21 11:37:35;;;;;;;6.97;3.20;;;27.00;99.90;;;;;;5011083;28;20504;-82
2022/07/21 11:40:12;;;;;;;6.82;2.92;;;27.00;99.90;;;;;;5009069;28;20065;-81
2022/07/21 11:42:44;;;;;;;5.20;2.90;;;27.00;99.90;;;;;;5012331;28;20050;-82
2022/07/21 11:45:11;;;;;;;3.63;2.65;;;27.10;99.90;;;;;;5010503;28;20053;-83
2022/07/21 11:47:39;;;;;;;5.10;2.85;;;27.10;99.90;;;;;;5009148;28;20065;-82
2022/07/21 11:50:09;;;;;;;4.03;2.67;;;27.10;99.90;;;;;;5016689;28;20065;-82
2022/07/21 11:52:39;;;;;;;4.13;2.47;;;27.20;99.90;;;;;;5010192;28;20053;-83
2022/07/21 11:55:08;;;;;;;3.35;2.40;;;27.20;99.90;;;;;;5012301;28;20054;-82
2022/07/21 11:57:36;;;;;;;6.53;2.72;;;27.20;99.90;;;;;;5013872;28;20065;-82
2022/07/21 12:00:07;;;;;;;3.25;2.42;;;27.30;99.90;;;;;;5020661;28;20054;-82
2022/07/21 12:02:34;;;;;;;4.50;2.45;;;27.30;99.90;;;;;;5014734;28;20508;-82
2022/07/21 12:05:03;;;;;;;4.20;2.38;;;27.40;99.90;;;;;;5016269;28;20077;-82
2022/07/21 12:07:42;;;;;;;2.78;2.28;;;27.40;99.90;;;;;;5014376;28;20054;-82
2022/07/21 12:10:24;;;;;;;3.08;2.70;;;27.50;99.90;;;;;;5013393;28;20056;-82
2022/07/21 12:12:51;;;;;;;4.65;2.60;;;27.60;99.90;;;;;;5020525;28;20070;-82
2022/07/21 12:15:27;;;;;;;4.57;2.90;;;27.70;99.90;;;;;;5015327;28;20304;-82
2022/07/21 12:17:59;;;;;;;2.55;2.30;;;27.70;99.90;;;;;;5013575;28;20077;-83
2022/07/21 12:20:41;;;;;;;3.25;2.13;;;27.70;99.90;;;;;;5011101;28;20050;-83
2022/07/21 12:23:25;;;;;;;6.70;2.40;;;27.70;99.90;;;;;;5009050;28;20046;-84
2022/07/21 12:25:53;;;;;;;5.32;2.47;;;27.70;99.90;;;;;;5011562;28;20077;-83
2022/07/21 12:28:43;;;;;;;4.13;2.25;;;27.80;99.90;;;;;;5025116;28;20062;-81
2022/07/21 12:31:14;;;;;;;2.38;2.10;;;27.80;99.90;;;;;;5017358;28;20467;-83
2022/07/21 12:33:41;;;;;;;2.50;2.30;;;27.80;99.90;;;;;;5008618;28;20093;-83
2022/07/21 12:36:28;;;;;;;2.42;1.98;;;27.80;99.90;;;;;;5008001;28;20050;-83
2022/07/21 12:38:55;;;;;;;2.78;2.10;;;27.80;99.90;;;;;;5003386;28;20049;-83
2022/07/21 12:41:22;;;;;;;3.28;2.20;;;27.90;99.90;;;;;;5003270;28;20042;-83
2022/07/21 12:43:59;;;;;;;4.72;2.13;;;27.90;99.90;;;;;;5005228;28;20050;-83
2022/07/21 12:46:32;;;;;;;2.95;2.25;;;27.90;99.90;;;;;;5011814;28;20054;-83
2022/07/21 12:49:07;;;;;;;5.75;2.10;;;27.90;99.90;;;;;;5006047;28;20050;-85
2022/07/21 12:51:38;;;;;;;4.30;2.05;;;27.90;99.90;;;;;;5009046;28;20054;-82